createdAt,value
2023-04-07T00:01:43.828Z,3.48
2023-04-07T00:04:13.416Z,3.45
2023-04-07T00:06:43.456Z,3.39
2023-04-07T00:09:12.937Z,3.46
2023-04-07T00:11:43.756Z,3.48
2023-04-07T00:14:13.145Z,3.44
2023-04-07T00:16:42.580Z,3.38
2023-04-07T00:19:11.983Z,3.31
2023-04-07T00:21:41.537Z,3.30
2023-04-07T00:24:12.937Z,3.30
2023-04-07T00:26:45.259Z,3.27
2023-04-07T00:29:14.804Z,3.25
2023-04-07T00:31:44.308Z,3.21
2023-04-07T00:34:13.818Z,3.17
2023-04-07T00:36:44.360Z,3.27
2023-04-07T00:39:13.742Z,3.26
2023-04-07T00:41:44.530Z,3.32
2023-04-07T00:44:14.294Z,3.38
2023-04-07T00:46:43.950Z,3.37
2023-04-07T00:49:13.759Z,3.41
2023-04-07T00:51:43.243Z,3.47
2023-04-07T00:54:12.738Z,3.57
2023-04-07T00:56:43.939Z,3.71
2023-04-07T00:59:13.473Z,3.74
2023-04-07T01:02:04.211Z,3.73
2023-04-07T01:04:46.344Z,3.66
2023-04-07T01:07:24.907Z,3.62
2023-04-07T01:10:08.722Z,3.68
2023-04-07T01:13:04.305Z,3.76
2023-04-07T01:15:38.989Z,3.79
2023-04-07T01:18:22.147Z,3.85
2023-04-07T01:20:56.340Z,3.85
2023-04-07T01:23:51.009Z,3.95
2023-04-07T01:26:25.500Z,3.97
2023-04-07T01:29:36.457Z,3.98
2023-04-07T01:32:09.158Z,4.00
2023-04-07T01:34:39.625Z,4.01
2023-04-07T01:37:09.885Z,3.97
2023-04-07T01:39:40.539Z,4.02
2023-04-07T01:42:11.460Z,4.07
2023-04-07T01:44:44.096Z,4.13
2023-04-07T01:47:14.024Z,4.25
2023-04-07T01:49:45.201Z,4.32
2023-04-07T01:52:15.623Z,4.37
2023-04-07T01:54:45.536Z,4.43
2023-04-07T01:57:15.386Z,4.48
2023-04-07T01:59:46.660Z,4.54
2023-04-07T02:02:17.452Z,4.67
2023-04-07T02:04:56.177Z,4.80
2023-04-07T02:07:38.607Z,4.86
2023-04-07T02:10:16.098Z,4.93
2023-04-07T02:12:48.498Z,4.92
2023-04-07T02:15:24.948Z,4.91
2023-04-07T02:17:56.060Z,4.92
2023-04-07T02:20:26.506Z,4.82
2023-04-07T02:22:56.065Z,4.75
2023-04-07T02:25:28.254Z,4.70
2023-04-07T02:28:00.461Z,4.62
2023-04-07T02:30:31.989Z,4.53
2023-04-07T02:33:01.614Z,4.53
2023-04-07T02:35:31.364Z,4.53
2023-04-07T02:38:00.928Z,4.45
2023-04-07T02:40:30.941Z,4.41
2023-04-07T02:43:00.729Z,4.27
2023-04-07T02:45:31.554Z,4.30
2023-04-07T02:48:00.987Z,4.25
2023-04-07T02:50:30.627Z,4.21
2023-04-07T02:53:00.061Z,4.12
2023-04-07T02:55:29.745Z,4.09
2023-04-07T02:57:59.275Z,3.98
2023-04-07T03:00:40.378Z,3.91
2023-04-07T03:03:14.017Z,3.90
2023-04-07T03:05:48.701Z,3.81
2023-04-07T03:08:18.193Z,3.76
2023-04-07T03:10:47.650Z,3.69
2023-04-07T03:13:19.741Z,3.66
2023-04-07T03:15:51.151Z,3.64
2023-04-07T03:18:21.750Z,3.64
2023-04-07T03:20:52.864Z,3.62
2023-04-07T03:23:23.883Z,3.61
2023-04-07T03:25:53.396Z,3.60
2023-04-07T03:28:22.921Z,3.60
2023-04-07T03:30:53.711Z,3.60
2023-04-07T03:33:24.535Z,3.61
2023-04-07T03:35:56.455Z,3.61
2023-04-07T03:38:27.696Z,3.59
2023-04-07T03:41:01.638Z,3.58
2023-04-07T03:43:31.117Z,3.57
2023-04-07T03:46:01.973Z,3.56
2023-04-07T03:48:31.493Z,3.56
2023-04-07T03:51:08.657Z,3.56
2023-04-07T03:53:38.089Z,3.55
2023-04-07T03:56:19.181Z,3.55
2023-04-07T03:58:53.204Z,3.54
2023-04-07T04:01:31.423Z,3.53
2023-04-07T04:04:07.509Z,3.54
2023-04-07T04:06:37.575Z,3.54
2023-04-07T04:09:21.085Z,3.55
2023-04-07T04:11:51.840Z,3.54
2023-04-07T04:14:21.845Z,3.54
2023-04-07T04:17:00.563Z,3.55
2023-04-07T04:19:34.728Z,3.54
2023-04-07T04:22:10.118Z,3.54
2023-04-07T04:24:46.402Z,3.57
2023-04-07T04:27:16.398Z,3.55
2023-04-07T04:29:48.862Z,3.61
2023-04-07T04:32:22.408Z,3.56
2023-04-07T04:34:52.163Z,3.51
2023-04-07T04:37:22.724Z,3.51
2023-04-07T04:39:52.636Z,3.46
2023-04-07T04:42:26.271Z,3.44
2023-04-07T04:44:57.348Z,3.40
2023-04-07T04:47:28.961Z,3.37
2023-04-07T04:49:59.795Z,3.36
2023-04-07T04:52:30.211Z,3.37
2023-04-07T04:54:59.952Z,3.37
2023-04-07T04:57:30.907Z,3.39
2023-04-07T05:00:01.368Z,3.39
2023-04-07T05:02:32.893Z,3.38
2023-04-07T05:05:05.066Z,3.36
2023-04-07T05:07:34.574Z,3.34
2023-04-07T05:10:05.362Z,3.34
2023-04-07T05:12:37.926Z,3.32
2023-04-07T05:15:10.164Z,3.32
2023-04-07T05:17:41.559Z,3.30
2023-04-07T05:20:14.776Z,3.30
2023-04-07T05:22:44.523Z,3.33
2023-04-07T05:25:16.776Z,3.34
2023-04-07T05:27:48.224Z,3.29
2023-04-07T05:30:19.431Z,3.29
2023-04-07T05:32:50.330Z,3.28
2023-04-07T05:35:27.711Z,3.33
2023-04-07T05:37:59.508Z,3.34
2023-04-07T05:40:30.197Z,3.35
2023-04-07T05:43:02.618Z,3.38
2023-04-07T05:45:34.052Z,3.40
2023-04-07T05:48:05.154Z,3.44
2023-04-07T05:50:42.641Z,3.49
2023-04-07T05:53:16.815Z,3.50
2023-04-07T05:55:46.611Z,3.52
2023-04-07T05:58:24.938Z,3.56
2023-04-07T06:00:57.028Z,3.57
2023-04-07T06:03:27.969Z,3.60
2023-04-07T06:06:03.616Z,3.61
2023-04-07T06:08:33.084Z,3.62
2023-04-07T06:11:02.797Z,3.64
2023-04-07T06:13:32.429Z,3.70
2023-04-07T06:16:01.840Z,3.73
2023-04-07T06:18:32.684Z,3.72
2023-04-07T06:23:46.034Z,3.73
2023-04-07T06:26:15.858Z,3.76
2023-04-07T06:28:45.448Z,3.78
2023-04-07T06:31:14.922Z,3.81
2023-04-07T06:33:44.403Z,3.85
2023-04-07T06:36:14.097Z,3.86
2023-04-07T06:38:44.956Z,3.87
2023-04-07T06:41:17.047Z,3.91
2023-04-07T06:43:51.260Z,3.95
2023-04-07T06:46:21.383Z,4.00
2023-04-07T06:48:50.891Z,4.05
2023-04-07T06:51:20.350Z,4.12
2023-04-07T06:53:51.169Z,4.17
2023-04-07T06:56:21.024Z,4.22
2023-04-07T06:58:51.006Z,4.25
2023-04-07T07:01:20.574Z,4.29
2023-04-07T07:03:50.278Z,4.32
2023-04-07T07:06:19.869Z,4.37
2023-04-07T07:08:50.884Z,4.41
2023-04-07T07:11:20.906Z,4.43
2023-04-07T07:13:50.625Z,4.48
2023-04-07T07:16:20.413Z,4.53
2023-04-07T07:18:49.899Z,4.58
2023-04-07T07:21:20.328Z,4.64
2023-04-07T07:23:51.423Z,4.70
2023-04-07T07:26:20.876Z,4.75
2023-04-07T07:28:50.462Z,4.80
2023-04-07T07:31:20.394Z,4.87
2023-04-07T07:33:51.532Z,4.96
2023-04-07T07:36:21.087Z,5.06
2023-04-07T07:38:52.717Z,5.16
2023-04-07T07:41:22.131Z,5.24
2023-04-07T07:43:51.630Z,5.31
2023-04-07T07:46:21.163Z,5.40
2023-04-07T07:48:50.766Z,5.50
2023-04-07T07:51:20.343Z,5.60
2023-04-07T07:53:50.098Z,5.69
2023-04-07T07:56:21.588Z,5.76
2023-04-07T07:58:51.189Z,5.90
2023-04-07T08:01:20.638Z,6.06
2023-04-07T08:03:50.621Z,6.19
2023-04-07T08:06:20.542Z,6.33
2023-04-07T08:08:50.067Z,6.46
2023-04-07T08:11:21.340Z,6.57
2023-04-07T08:13:50.878Z,6.70
2023-04-07T08:16:20.441Z,6.81
2023-04-07T08:18:50.071Z,6.94
2023-04-07T08:21:20.106Z,7.04
2023-04-07T08:23:49.953Z,7.12
2023-04-07T08:26:21.211Z,7.21
2023-04-07T08:28:52.253Z,7.29
2023-04-07T08:31:21.818Z,7.43
2023-04-07T08:33:54.047Z,7.55
2023-04-07T08:36:23.599Z,7.69
2023-04-07T08:38:53.130Z,7.82
2023-04-07T08:41:32.517Z,7.93
2023-04-07T08:44:03.509Z,8.01
2023-04-07T08:46:34.508Z,8.15
2023-04-07T08:49:04.726Z,8.25
2023-04-07T08:51:36.293Z,8.33
2023-04-07T08:54:11.846Z,8.40
2023-04-07T08:56:44.216Z,8.46
2023-04-07T08:59:18.485Z,8.53
2023-04-07T09:01:48.465Z,8.60
2023-04-07T09:04:18.877Z,8.66
2023-04-07T09:06:48.372Z,8.70
2023-04-07T09:09:17.913Z,8.74
2023-04-07T09:11:51.410Z,8.78
2023-04-07T09:14:22.091Z,8.90
2023-04-07T09:16:51.629Z,8.96
2023-04-07T09:19:21.226Z,9.01
2023-04-07T09:21:52.871Z,9.08
2023-04-07T09:24:25.616Z,9.15
2023-04-07T09:27:17.243Z,9.24
2023-04-07T09:29:48.549Z,9.33
2023-04-07T09:32:39.235Z,9.49
2023-04-07T09:35:10.481Z,9.43
2023-04-07T09:37:40.025Z,9.43
2023-04-07T09:40:10.962Z,9.31
2023-04-07T09:42:48.354Z,9.38
2023-04-07T09:45:34.575Z,9.56
2023-04-07T09:48:10.934Z,9.81
2023-04-07T09:50:45.782Z,9.98
2023-04-07T09:53:15.450Z,10.15
2023-04-07T09:55:45.303Z,10.17
2023-04-07T09:58:16.928Z,10.11
2023-04-07T10:00:48.110Z,10.07
2023-04-07T10:03:18.037Z,10.02
2023-04-07T10:05:48.321Z,10.17
2023-04-07T10:08:18.897Z,10.28
2023-04-07T10:10:50.872Z,10.35
2023-04-07T10:13:22.315Z,10.45
2023-04-07T10:15:51.950Z,10.54
2023-04-07T10:18:23.516Z,10.65
2023-04-07T10:20:55.770Z,10.77
2023-04-07T10:23:38.854Z,10.91
2023-04-07T10:26:08.962Z,11.00
2023-04-07T10:28:44.976Z,11.06
2023-04-07T10:31:14.878Z,11.18
2023-04-07T10:33:53.104Z,11.29
2023-04-07T10:36:23.288Z,11.32
2023-04-07T10:39:22.406Z,11.38
2023-04-07T10:41:53.186Z,11.50
2023-04-07T10:47:27.339Z,11.59
2023-04-07T10:50:21.506Z,11.59
2023-04-07T10:53:07.242Z,11.70
2023-04-07T10:55:39.810Z,11.67
2023-04-07T10:58:24.622Z,11.75
2023-04-07T11:01:22.339Z,11.94
2023-04-07T11:04:01.952Z,12.15
2023-04-07T11:06:31.667Z,12.18
2023-04-07T11:09:01.143Z,12.13
2023-04-07T11:11:43.012Z,12.24
2023-04-07T11:14:12.461Z,12.37
2023-04-07T11:16:45.749Z,12.49
2023-04-07T11:19:16.527Z,12.60
2023-04-07T11:21:46.129Z,12.62
2023-04-07T11:24:34.049Z,12.54
2023-04-07T11:27:03.583Z,12.53
2023-04-07T11:29:34.629Z,12.46
2023-04-07T11:32:04.578Z,12.49
2023-04-07T11:34:38.033Z,12.44
2023-04-07T11:37:20.915Z,12.43
2023-04-07T11:39:54.474Z,12.46
2023-04-07T11:42:34.680Z,12.61
2023-04-07T11:45:05.992Z,12.58
2023-04-07T11:47:37.570Z,12.65
2023-04-07T11:50:10.341Z,12.72
2023-04-07T11:52:44.639Z,12.86
2023-04-07T11:55:22.446Z,12.77
2023-04-07T11:57:52.498Z,12.81
2023-04-07T12:00:22.529Z,12.83
2023-04-07T12:02:52.579Z,13.00
2023-04-07T12:05:24.912Z,12.91
2023-04-07T12:07:56.455Z,12.86
2023-04-07T12:10:27.090Z,12.75
2023-04-07T12:12:59.297Z,12.56
2023-04-07T12:15:29.038Z,12.30
2023-04-07T12:17:58.588Z,12.27
2023-04-07T12:20:29.706Z,12.36
2023-04-07T12:23:00.201Z,12.41
2023-04-07T12:25:29.670Z,12.44
2023-04-07T12:27:59.116Z,12.37
2023-04-07T12:30:28.560Z,12.22
2023-04-07T12:32:58.091Z,12.11
2023-04-07T12:35:28.957Z,12.00
2023-04-07T12:37:58.544Z,11.93
2023-04-07T12:40:29.390Z,11.95
2023-04-07T12:42:59.192Z,11.97
2023-04-07T12:45:30.595Z,12.03
2023-04-07T12:48:00.583Z,12.06
2023-04-07T12:50:31.773Z,12.00
2023-04-07T12:53:03.514Z,12.02
2023-04-07T12:55:35.627Z,12.04
2023-04-07T12:58:05.053Z,12.09
2023-04-07T13:00:34.723Z,12.14
2023-04-07T13:03:04.602Z,12.14
2023-04-07T13:05:35.623Z,12.22
2023-04-07T13:08:05.788Z,12.26
2023-04-07T13:10:35.287Z,12.27
2023-04-07T13:13:04.760Z,12.34
2023-04-07T13:15:34.277Z,12.34
2023-04-07T13:18:03.790Z,12.43
2023-04-07T13:20:34.643Z,12.46
2023-04-07T13:23:08.188Z,12.43
2023-04-07T13:25:39.546Z,12.46
2023-04-07T13:28:09.173Z,12.46
2023-04-07T13:30:38.619Z,12.45
2023-04-07T13:33:08.141Z,12.45
2023-04-07T13:35:39.038Z,12.42
2023-04-07T13:38:09.168Z,12.33
2023-04-07T13:40:38.636Z,12.34
2023-04-07T13:43:08.068Z,12.14
2023-04-07T13:45:37.457Z,12.06
2023-04-07T13:48:07.195Z,11.85
2023-04-07T13:50:39.825Z,11.78
2023-04-07T13:53:09.456Z,11.84
2023-04-07T13:55:39.739Z,11.85
2023-04-07T13:58:09.244Z,11.82
2023-04-07T14:00:40.135Z,11.81
2023-04-07T14:03:09.827Z,11.79
2023-04-07T14:05:40.872Z,11.72
2023-04-07T14:08:10.264Z,11.77
2023-04-07T14:10:42.074Z,11.85
2023-04-07T14:13:12.080Z,11.84
2023-04-07T14:15:42.534Z,11.84
2023-04-07T14:18:11.997Z,11.94
2023-04-07T14:20:42.840Z,11.95
2023-04-07T14:23:12.588Z,11.95
2023-04-07T14:25:43.477Z,11.98
2023-04-07T14:28:12.883Z,11.70
2023-04-07T14:30:42.305Z,11.54
2023-04-07T14:33:12.104Z,11.47
2023-04-07T14:35:43.290Z,11.54
2023-04-07T14:38:12.721Z,11.53
2023-04-07T14:40:42.283Z,11.48
2023-04-07T14:43:12.243Z,11.40
2023-04-07T14:45:41.690Z,11.41
2023-04-07T14:48:11.225Z,11.36
2023-04-07T14:50:42.159Z,11.32
2023-04-07T14:53:11.763Z,11.26
2023-04-07T14:55:43.201Z,11.26
2023-04-07T14:58:12.596Z,11.25
2023-04-07T15:00:42.062Z,11.23
2023-04-07T15:03:11.766Z,11.29
2023-04-07T15:05:42.736Z,11.32
2023-04-07T15:08:12.115Z,11.33
2023-04-07T15:10:41.571Z,11.29
2023-04-07T15:13:11.125Z,11.27
2023-04-07T15:15:40.586Z,11.18
2023-04-07T15:18:10.169Z,11.19
2023-04-07T15:20:39.602Z,11.21
2023-04-07T15:23:10.379Z,11.21
2023-04-07T15:25:39.798Z,11.21
2023-04-07T15:28:09.224Z,11.13
2023-04-07T15:30:38.587Z,11.06
2023-04-07T15:33:08.081Z,11.09
2023-04-07T15:35:37.596Z,11.09
2023-04-07T15:38:07.067Z,11.09
2023-04-07T15:40:39.499Z,11.10
2023-04-07T15:43:11.053Z,11.06
2023-04-07T15:45:43.703Z,11.00
2023-04-07T15:48:14.522Z,11.00
2023-04-07T15:50:43.974Z,10.94
2023-04-07T15:53:13.761Z,10.93
2023-04-07T15:55:44.741Z,10.91
2023-04-07T15:58:14.201Z,10.88
2023-04-07T16:00:44.898Z,10.87
2023-04-07T16:03:14.522Z,10.86
2023-04-07T16:05:44.233Z,10.84
2023-04-07T16:08:14.019Z,10.76
2023-04-07T16:10:44.997Z,10.75
2023-04-07T16:13:14.797Z,10.71
2023-04-07T16:15:44.236Z,10.62
2023-04-07T16:18:13.692Z,10.59
2023-04-07T16:20:43.145Z,10.48
2023-04-07T16:23:12.666Z,10.44
2023-04-07T16:25:42.096Z,10.35
2023-04-07T16:28:12.877Z,10.29
2023-04-07T16:30:42.332Z,10.23
2023-04-07T16:33:11.784Z,10.11
2023-04-07T16:35:41.430Z,10.09
2023-04-07T16:38:11.492Z,10.02
2023-04-07T16:40:41.712Z,9.96
2023-04-07T16:43:13.554Z,9.95
2023-04-07T16:45:42.963Z,9.92
2023-04-07T16:48:12.413Z,9.85
2023-04-07T16:50:43.727Z,9.80
2023-04-07T16:53:13.302Z,9.74
2023-04-07T16:55:42.724Z,9.71
2023-04-07T16:58:13.576Z,9.67
2023-04-07T17:00:42.991Z,9.63
2023-04-07T17:03:15.453Z,9.56
2023-04-07T17:05:45.668Z,9.50
2023-04-07T17:08:15.566Z,9.44
2023-04-07T17:10:45.025Z,9.42
2023-04-07T17:13:15.850Z,9.38
2023-04-07T17:15:45.359Z,9.34
2023-04-07T17:18:14.846Z,9.30
2023-04-07T17:20:44.275Z,9.26
2023-04-07T17:23:14.219Z,9.21
2023-04-07T17:25:43.789Z,9.21
2023-04-07T17:28:13.385Z,9.16
2023-04-07T17:30:44.147Z,9.10
2023-04-07T17:33:13.701Z,9.06
2023-04-07T17:35:43.160Z,9.01
2023-04-07T17:38:12.539Z,8.97
2023-04-07T17:40:42.016Z,8.92
2023-04-07T17:43:11.524Z,8.88
2023-04-07T17:45:40.942Z,8.85
2023-04-07T17:48:12.196Z,8.82
2023-04-07T17:50:41.986Z,8.80
2023-04-07T17:53:11.395Z,8.77
2023-04-07T17:55:41.523Z,8.74
2023-04-07T17:58:11.659Z,8.72
2023-04-07T18:00:41.254Z,8.71
2023-04-07T18:03:14.249Z,8.69
2023-04-07T18:05:44.937Z,8.66
2023-04-07T18:08:14.869Z,8.63
2023-04-07T18:10:44.302Z,8.55
2023-04-07T18:13:13.765Z,8.46
2023-04-07T18:15:43.490Z,8.37
2023-04-07T18:18:14.334Z,8.30
2023-04-07T18:20:43.806Z,8.22
2023-04-07T18:23:13.644Z,8.13
2023-04-07T18:25:43.130Z,8.06
2023-04-07T18:28:12.910Z,8.00
2023-04-07T18:30:42.359Z,7.95
2023-04-07T18:33:14.221Z,7.90
2023-04-07T18:35:43.704Z,7.84
2023-04-07T18:38:13.106Z,7.82
2023-04-07T18:40:42.546Z,7.77
2023-04-07T18:43:11.975Z,7.73
2023-04-07T18:45:42.179Z,7.71
2023-04-07T18:48:12.971Z,7.67
2023-04-07T18:50:42.500Z,7.62
2023-04-07T18:53:15.619Z,7.59
2023-04-07T18:55:45.028Z,7.55
2023-04-07T18:58:15.475Z,7.52
2023-04-07T19:00:45.395Z,7.47
2023-04-07T19:03:16.562Z,7.44
2023-04-07T19:05:47.741Z,7.43
2023-04-07T19:08:17.468Z,7.40
2023-04-07T19:10:47.091Z,7.37
2023-04-07T19:13:18.372Z,7.34
2023-04-07T19:15:47.887Z,7.30
2023-04-07T19:18:18.917Z,7.32
2023-04-07T19:20:48.670Z,7.33
2023-04-07T19:23:18.126Z,7.30
2023-04-07T19:25:47.866Z,7.29
2023-04-07T19:28:17.361Z,7.28
2023-04-07T19:30:46.789Z,7.27
2023-04-07T19:33:16.153Z,7.24
2023-04-07T19:35:47.103Z,7.23
2023-04-07T19:38:16.558Z,7.19
2023-04-07T19:40:46.014Z,7.18
2023-04-07T19:43:17.335Z,7.15
2023-04-07T19:45:49.261Z,7.13
2023-04-07T19:48:19.064Z,7.10
2023-04-07T19:50:51.421Z,7.11
2023-04-07T19:53:21.979Z,7.10
2023-04-07T19:55:51.572Z,7.08
2023-04-07T19:58:22.656Z,7.03
2023-04-07T20:00:52.452Z,6.99
2023-04-07T20:03:22.732Z,6.98
2023-04-07T20:05:54.780Z,6.95
2023-04-07T20:08:24.251Z,6.93
2023-04-07T20:10:53.719Z,6.90
2023-04-07T20:13:23.891Z,6.86
2023-04-07T20:15:53.880Z,6.83
2023-04-07T20:18:23.316Z,6.79
2023-04-07T20:21:01.131Z,6.75
2023-04-07T20:23:30.954Z,6.73
2023-04-07T20:26:01.517Z,6.70
2023-04-07T20:28:31.618Z,6.66
2023-04-07T20:31:01.297Z,6.65
2023-04-07T20:33:30.860Z,6.64
2023-04-07T20:36:01.655Z,6.65
2023-04-07T20:38:31.087Z,6.62
2023-04-07T20:41:00.777Z,6.61
2023-04-07T20:43:30.305Z,6.60
2023-04-07T20:45:59.699Z,6.64
2023-04-07T20:48:29.081Z,6.63
2023-04-07T20:50:59.130Z,6.61
2023-04-07T20:53:30.050Z,6.60
2023-04-07T20:56:00.218Z,6.58
2023-04-07T20:58:29.819Z,6.58
2023-04-07T21:01:01.589Z,6.55
2023-04-07T21:03:31.441Z,6.54
2023-04-07T21:06:00.967Z,6.50
2023-04-07T21:08:31.764Z,6.48
2023-04-07T21:11:01.203Z,6.44
2023-04-07T21:13:30.622Z,6.42
2023-04-07T21:16:01.295Z,6.39
2023-04-07T21:18:30.951Z,6.33
2023-04-07T21:21:02.928Z,6.25
2023-04-07T21:23:33.752Z,6.18
2023-04-07T21:26:04.052Z,6.11
2023-04-07T21:28:33.495Z,6.05
2023-04-07T21:31:03.840Z,5.96
2023-04-07T21:33:33.407Z,5.87
2023-04-07T21:36:03.714Z,5.77
2023-04-07T21:38:34.564Z,5.67
2023-04-07T21:41:03.980Z,5.57
2023-04-07T21:43:34.543Z,5.50
2023-04-07T21:46:03.989Z,5.42
2023-04-07T21:48:34.751Z,5.32
2023-04-07T21:51:04.450Z,5.22
2023-04-07T21:53:36.495Z,5.10
2023-04-07T21:56:08.359Z,5.02
2023-04-07T21:58:38.297Z,4.91
2023-04-07T22:01:07.915Z,4.82
2023-04-07T22:03:37.443Z,4.70
2023-04-07T22:06:08.573Z,4.63
2023-04-07T22:08:41.056Z,4.62
2023-04-07T22:11:13.872Z,4.63
2023-04-07T22:13:43.420Z,4.60
2023-04-07T22:16:13.379Z,4.53
2023-04-07T22:18:42.830Z,4.42
2023-04-07T22:21:12.204Z,4.31
2023-04-07T22:23:42.970Z,4.20
2023-04-07T22:26:12.564Z,4.14
2023-04-07T22:28:42.573Z,4.04
2023-04-07T22:31:12.013Z,3.96
2023-04-07T22:33:41.548Z,3.89
2023-04-07T22:36:10.986Z,3.80
2023-04-07T22:38:41.829Z,3.71
2023-04-07T22:41:11.230Z,3.59
2023-04-07T22:43:40.632Z,3.51
2023-04-07T22:46:10.000Z,3.45
2023-04-07T22:48:39.401Z,3.39
2023-04-07T22:51:08.820Z,3.35
2023-04-07T22:53:38.249Z,3.30
2023-04-07T22:56:09.592Z,3.27
2023-04-07T22:58:39.376Z,3.23
2023-04-07T23:01:09.020Z,3.19
2023-04-07T23:03:38.573Z,3.17
2023-04-07T23:06:08.121Z,3.19
2023-04-07T23:08:37.789Z,3.15
2023-04-07T23:11:11.411Z,3.14
2023-04-07T23:13:40.975Z,3.13
2023-04-07T23:16:13.477Z,3.13
2023-04-07T23:18:43.550Z,3.12
2023-04-07T23:21:15.003Z,3.09
2023-04-07T23:23:44.395Z,3.06
2023-04-07T23:26:15.465Z,3.01
2023-04-07T23:28:44.947Z,2.95
2023-04-07T23:31:14.626Z,2.90
2023-04-07T23:33:44.084Z,2.87
2023-04-07T23:36:13.499Z,2.88
2023-04-07T23:38:42.972Z,3.05
2023-04-07T23:41:13.802Z,3.38
2023-04-07T23:43:43.248Z,3.44
2023-04-07T23:46:12.744Z,3.50
2023-04-07T23:48:42.795Z,3.51
2023-04-07T23:51:12.740Z,3.49
2023-04-07T23:53:42.268Z,3.46
2023-04-07T23:56:11.747Z,3.40
2023-04-07T23:58:42.532Z,3.39
